sensor_id;sensor_type;location;lat;lon;timestamp;temperature;humidity
4701;DHT22;8724;51.272;6.554;2022-07-03T00:02:18;23.50;99.90
4701;DHT22;8724;51.272;6.554;2022-07-03T00:04:46;23.50;99.90
4701;DHT22;8724;51.272;6.554;2022-07-03T00:07:15;23.50;99.90
4701;DHT22;8724;51.272;6.554;2022-07-03T00:09:43;23.50;99.90
4701;DHT22;8724;51.272;6.554;2022-07-03T00:12:12;23.50;99.90
4701;DHT22;8724;51.272;6.554;2022-07-03T00:14:42;23.50;99.90
4701;DHT22;8724;51.272;6.554;2022-07-03T00:17:11;23.40;99.90
4701;DHT22;8724;51.272;6.554;2022-07-03T00:19:40;23.40;99.90
4701;DHT22;8724;51.272;6.554;2022-07-03T00:22:12;23.40;99.90
4701;DHT22;8724;51.272;6.554;2022-07-03T00:24:44;23.40;99.90
4701;DHT22;8724;51.272;6.554;2022-07-03T00:27:14;23.40;99.90
4701;DHT22;8724;51.272;6.554;2022-07-03T00:29:45;23.40;99.90
4701;DHT22;8724;51.272;6.554;2022-07-03T00:32:17;23.40;99.90
4701;DHT22;8724;51.272;6.554;2022-07-03T00:34:47;23.40;99.90
4701;DHT22;8724;51.272;6.554;2022-07-03T00:37:17;23.40;99.90
4701;DHT22;8724;51.272;6.554;2022-07-03T00:39:46;23.30;99.90
4701;DHT22;8724;51.272;6.554;2022-07-03T00:42:16;23.30;99.90
4701;DHT22;8724;51.272;6.554;2022-07-03T00:44:47;23.30;99.90
4701;DHT22;8724;51.272;6.554;2022-07-03T00:47:17;23.30;99.90
4701;DHT22;8724;51.272;6.554;2022-07-03T00:49:47;23.30;99.90
4701;DHT22;8724;51.272;6.554;2022-07-03T00:52:17;23.30;99.90
4701;DHT22;8724;51.272;6.554;2022-07-03T00:54:52;23.30;99.90
4701;DHT22;8724;51.272;6.554;2022-07-03T00:57:22;23.30;99.90
4701;DHT22;8724;51.272;6.554;2022-07-03T00:59:52;23.20;99.90
4701;DHT22;8724;51.272;6.554;2022-07-03T01:02:30;23.30;99.90
4701;DHT22;8724;51.272;6.554;2022-07-03T01:05:07;23.20;99.90
4701;DHT22;8724;51.272;6.554;2022-07-03T01:07:46;23.20;99.90
4701;DHT22;8724;51.272;6.554;2022-07-03T01:10:25;23.20;99.90
4701;DHT22;8724;51.272;6.554;2022-07-03T01:13:03;23.10;99.90
4701;DHT22;8724;51.272;6.554;2022-07-03T01:15:44;23.10;99.90
4701;DHT22;8724;51.272;6.554;2022-07-03T01:18:27;23.10;99.90
4701;DHT22;8724;51.272;6.554;2022-07-03T01:21:03;23.10;99.90
4701;DHT22;8724;51.272;6.554;2022-07-03T01:23:46;23.10;99.90
4701;DHT22;8724;51.272;6.554;2022-07-03T01:26:18;23.10;99.90
4701;DHT22;8724;51.272;6.554;2022-07-03T01:28:47;23.10;99.90
4701;DHT22;8724;51.272;6.554;2022-07-03T01:31:19;23.00;99.90
4701;DHT22;8724;51.272;6.554;2022-07-03T01:33:50;23.00;99.90
4701;DHT22;8724;51.272;6.554;2022-07-03T01:36:21;23.00;99.90
4701;DHT22;8724;51.272;6.554;2022-07-03T01:38:53;23.00;99.90
4701;DHT22;8724;51.272;6.554;2022-07-03T01:41:27;22.90;99.90
4701;DHT22;8724;51.272;6.554;2022-07-03T01:44:00;22.90;99.90
4701;DHT22;8724;51.272;6.554;2022-07-03T01:46:31;22.90;99.90
4701;DHT22;8724;51.272;6.554;2022-07-03T01:49:00;22.90;99.90
4701;DHT22;8724;51.272;6.554;2022-07-03T01:51:28;22.90;99.90
4701;DHT22;8724;51.272;6.554;2022-07-03T01:53:58;22.80;99.90
4701;DHT22;8724;51.272;6.554;2022-07-03T01:56:31;22.80;99.90
4701;DHT22;8724;51.272;6.554;2022-07-03T01:59:00;22.80;99.90
4701;DHT22;8724;51.272;6.554;2022-07-03T02:01:33;22.80;99.90
4701;DHT22;8724;51.272;6.554;2022-07-03T02:04:19;22.80;99.90
4701;DHT22;8724;51.272;6.554;2022-07-03T02:06:56;22.70;99.90
4701;DHT22;8724;51.272;6.554;2022-07-03T02:09:35;22.70;99.90
4701;DHT22;8724;51.272;6.554;2022-07-03T02:12:11;22.70;99.90
4701;DHT22;8724;51.272;6.554;2022-07-03T02:14:40;22.70;99.90
4701;DHT22;8724;51.272;6.554;2022-07-03T02:17:17;22.60;99.90
4701;DHT22;8724;51.272;6.554;2022-07-03T02:19:53;22.60;99.90
4701;DHT22;8724;51.272;6.554;2022-07-03T02:22:25;22.60;99.90
4701;DHT22;8724;51.272;6.554;2022-07-03T02:25:00;22.60;99.90
4701;DHT22;8724;51.272;6.554;2022-07-03T02:27:41;22.60;99.90
4701;DHT22;8724;51.272;6.554;2022-07-03T02:30:11;22.60;99.90
4701;DHT22;8724;51.272;6.554;2022-07-03T02:32:43;22.50;99.90
4701;DHT22;8724;51.272;6.554;2022-07-03T02:35:17;22.50;99.90
4701;DHT22;8724;51.272;6.554;2022-07-03T02:37:48;22.50;99.90
4701;DHT22;8724;51.272;6.554;2022-07-03T02:40:22;22.50;99.90
4701;DHT22;8724;51.272;6.554;2022-07-03T02:43:02;22.50;99.90
4701;DHT22;8724;51.272;6.554;2022-07-03T02:45:42;22.50;99.90
4701;DHT22;8724;51.272;6.554;2022-07-03T02:48:21;22.40;99.90
4701;DHT22;8724;51.272;6.554;2022-07-03T02:50:58;22.40;99.90
4701;DHT22;8724;51.272;6.554;2022-07-03T02:53:30;22.40;99.90
4701;DHT22;8724;51.272;6.554;2022-07-03T02:56:06;22.40;99.90
4701;DHT22;8724;51.272;6.554;2022-07-03T02:58:49;22.30;99.90
4701;DHT22;8724;51.272;6.554;2022-07-03T03:01:30;22.30;99.90
4701;DHT22;8724;51.272;6.554;2022-07-03T03:04:09;22.30;99.90
4701;DHT22;8724;51.272;6.554;2022-07-03T03:06:42;22.30;99.90
4701;DHT22;8724;51.272;6.554;2022-07-03T03:09:20;22.30;99.90
4701;DHT22;8724;51.272;6.554;2022-07-03T03:11:52;22.20;99.90
4701;DHT22;8724;51.272;6.554;2022-07-03T03:14:31;22.20;99.90
4701;DHT22;8724;51.272;6.554;2022-07-03T03:17:05;22.20;99.90
4701;DHT22;8724;51.272;6.554;2022-07-03T03:19:39;22.20;99.90
4701;DHT22;8724;51.272;6.554;2022-07-03T03:22:16;22.20;99.90
4701;DHT22;8724;51.272;6.554;2022-07-03T03:24:48;22.20;99.90
4701;DHT22;8724;51.272;6.554;2022-07-03T03:27:17;22.20;99.90
4701;DHT22;8724;51.272;6.554;2022-07-03T03:29:48;22.10;99.90
4701;DHT22;8724;51.272;6.554;2022-07-03T03:32:17;22.10;99.90
4701;DHT22;8724;51.272;6.554;2022-07-03T03:34:47;22.10;99.90
4701;DHT22;8724;51.272;6.554;2022-07-03T03:37:15;22.20;99.90
4701;DHT22;8724;51.272;6.554;2022-07-03T03:39:44;22.10;99.90
4701;DHT22;8724;51.272;6.554;2022-07-03T03:42:13;22.20;99.90
4701;DHT22;8724;51.272;6.554;2022-07-03T03:44:41;22.10;99.90
4701;DHT22;8724;51.272;6.554;2022-07-03T03:47:11;22.10;99.90
4701;DHT22;8724;51.272;6.554;2022-07-03T03:49:39;22.10;99.90
4701;DHT22;8724;51.272;6.554;2022-07-03T03:52:08;22.10;99.90
4701;DHT22;8724;51.272;6.554;2022-07-03T03:54:36;22.10;99.90
4701;DHT22;8724;51.272;6.554;2022-07-03T03:57:19;22.10;99.90
4701;DHT22;8724;51.272;6.554;2022-07-03T03:59:48;22.00;99.90
4701;DHT22;8724;51.272;6.554;2022-07-03T04:02:18;22.00;99.90
4701;DHT22;8724;51.272;6.554;2022-07-03T04:04:47;21.90;99.90
4701;DHT22;8724;51.272;6.554;2022-07-03T04:07:15;21.90;99.90
4701;DHT22;8724;51.272;6.554;2022-07-03T04:09:43;21.80;99.90
4701;DHT22;8724;51.272;6.554;2022-07-03T04:12:12;21.80;99.90
4701;DHT22;8724;51.272;6.554;2022-07-03T04:14:41;21.70;99.90
4701;DHT22;8724;51.272;6.554;2022-07-03T04:17:09;21.70;99.90
4701;DHT22;8724;51.272;6.554;2022-07-03T04:19:39;21.70;99.90
4701;DHT22;8724;51.272;6.554;2022-07-03T04:22:08;21.60;99.90
4701;DHT22;8724;51.272;6.554;2022-07-03T04:24:37;21.70;99.90
4701;DHT22;8724;51.272;6.554;2022-07-03T04:27:05;21.60;99.90
4701;DHT22;8724;51.272;6.554;2022-07-03T04:29:36;21.60;99.90
4701;DHT22;8724;51.272;6.554;2022-07-03T04:32:05;21.60;99.90
4701;DHT22;8724;51.272;6.554;2022-07-03T04:34:34;21.70;99.90
4701;DHT22;8724;51.272;6.554;2022-07-03T04:37:04;21.60;99.90
4701;DHT22;8724;51.272;6.554;2022-07-03T04:39:33;21.70;99.90
4701;DHT22;8724;51.272;6.554;2022-07-03T04:42:04;21.70;99.90
4701;DHT22;8724;51.272;6.554;2022-07-03T04:44:32;21.70;99.90
4701;DHT22;8724;51.272;6.554;2022-07-03T04:47:01;21.70;99.90
4701;DHT22;8724;51.272;6.554;2022-07-03T04:49:29;21.70;99.90
4701;DHT22;8724;51.272;6.554;2022-07-03T04:51:57;21.70;99.90
4701;DHT22;8724;51.272;6.554;2022-07-03T04:54:27;21.70;99.90
4701;DHT22;8724;51.272;6.554;2022-07-03T04:56:55;21.70;99.90
4701;DHT22;8724;51.272;6.554;2022-07-03T04:59:24;21.70;99.90
4701;DHT22;8724;51.272;6.554;2022-07-03T05:01:52;21.70;99.90
4701;DHT22;8724;51.272;6.554;2022-07-03T05:04:21;21.70;99.90
4701;DHT22;8724;51.272;6.554;2022-07-03T05:06:49;21.70;99.90
4701;DHT22;8724;51.272;6.554;2022-07-03T05:09:18;21.70;99.90
4701;DHT22;8724;51.272;6.554;2022-07-03T05:11:48;21.80;99.90
4701;DHT22;8724;51.272;6.554;2022-07-03T05:14:17;21.80;99.90
4701;DHT22;8724;51.272;6.554;2022-07-03T05:16:45;21.70;99.90
4701;DHT22;8724;51.272;6.554;2022-07-03T05:19:13;21.70;99.90
4701;DHT22;8724;51.272;6.554;2022-07-03T05:21:42;21.70;99.90
4701;DHT22;8724;51.272;6.554;2022-07-03T05:24:10;21.70;99.90
4701;DHT22;8724;51.272;6.554;2022-07-03T05:26:38;21.70;99.90
4701;DHT22;8724;51.272;6.554;2022-07-03T05:29:08;21.70;99.90
4701;DHT22;8724;51.272;6.554;2022-07-03T05:31:37;21.70;99.90
4701;DHT22;8724;51.272;6.554;2022-07-03T05:34:05;21.60;99.90
4701;DHT22;8724;51.272;6.554;2022-07-03T05:36:35;21.60;99.90
4701;DHT22;8724;51.272;6.554;2022-07-03T05:39:04;21.60;99.90
4701;DHT22;8724;51.272;6.554;2022-07-03T05:41:50;21.60;99.90
4701;DHT22;8724;51.272;6.554;2022-07-03T05:44:20;21.60;99.90
4701;DHT22;8724;51.272;6.554;2022-07-03T05:46:48;21.60;99.90
4701;DHT22;8724;51.272;6.554;2022-07-03T05:49:17;21.60;99.90
4701;DHT22;8724;51.272;6.554;2022-07-03T05:51:45;21.50;99.90
4701;DHT22;8724;51.272;6.554;2022-07-03T05:54:14;21.60;99.90
4701;DHT22;8724;51.272;6.554;2022-07-03T05:56:42;21.50;99.90
4701;DHT22;8724;51.272;6.554;2022-07-03T05:59:11;21.60;99.90
4701;DHT22;8724;51.272;6.554;2022-07-03T06:01:40;21.60;99.90
4701;DHT22;8724;51.272;6.554;2022-07-03T06:04:09;21.60;99.90
4701;DHT22;8724;51.272;6.554;2022-07-03T06:06:37;21.60;99.90
4701;DHT22;8724;51.272;6.554;2022-07-03T06:09:06;21.60;99.90
4701;DHT22;8724;51.272;6.554;2022-07-03T06:11:37;21.60;99.90
4701;DHT22;8724;51.272;6.554;2022-07-03T06:14:05;21.60;99.90
4701;DHT22;8724;51.272;6.554;2022-07-03T06:16:33;21.60;99.90
4701;DHT22;8724;51.272;6.554;2022-07-03T06:19:03;21.60;99.90
4701;DHT22;8724;51.272;6.554;2022-07-03T06:21:32;21.60;99.90
4701;DHT22;8724;51.272;6.554;2022-07-03T06:24:00;21.60;99.90
4701;DHT22;8724;51.272;6.554;2022-07-03T06:26:28;21.60;99.90
4701;DHT22;8724;51.272;6.554;2022-07-03T06:28:57;21.60;99.90
4701;DHT22;8724;51.272;6.554;2022-07-03T06:31:25;21.60;99.90
4701;DHT22;8724;51.272;6.554;2022-07-03T06:33:53;21.70;99.90
4701;DHT22;8724;51.272;6.554;2022-07-03T06:36:23;21.70;99.90
4701;DHT22;8724;51.272;6.554;2022-07-03T06:38:51;21.70;99.90
4701;DHT22;8724;51.272;6.554;2022-07-03T06:41:20;21.60;99.90
4701;DHT22;8724;51.272;6.554;2022-07-03T06:43:48;21.60;99.90
4701;DHT22;8724;51.272;6.554;2022-07-03T06:46:16;21.70;99.90
4701;DHT22;8724;51.272;6.554;2022-07-03T06:48:45;21.70;99.90
4701;DHT22;8724;51.272;6.554;2022-07-03T06:51:13;21.70;99.90
4701;DHT22;8724;51.272;6.554;2022-07-03T06:53:44;21.70;99.90
4701;DHT22;8724;51.272;6.554;2022-07-03T06:56:13;21.70;99.90
4701;DHT22;8724;51.272;6.554;2022-07-03T06:58:42;21.80;99.90
4701;DHT22;8724;51.272;6.554;2022-07-03T07:01:10;21.90;99.90
4701;DHT22;8724;51.272;6.554;2022-07-03T07:03:39;21.80;99.90
4701;DHT22;8724;51.272;6.554;2022-07-03T07:06:09;21.90;99.90
4701;DHT22;8724;51.272;6.554;2022-07-03T07:08:37;21.90;99.90
4701;DHT22;8724;51.272;6.554;2022-07-03T07:11:07;22.00;99.90
4701;DHT22;8724;51.272;6.554;2022-07-03T07:13:36;22.00;99.90
4701;DHT22;8724;51.272;6.554;2022-07-03T07:16:05;22.00;99.90
4701;DHT22;8724;51.272;6.554;2022-07-03T07:18:33;22.00;99.90
4701;DHT22;8724;51.272;6.554;2022-07-03T07:21:02;22.10;99.90
4701;DHT22;8724;51.272;6.554;2022-07-03T07:23:30;22.10;99.90
4701;DHT22;8724;51.272;6.554;2022-07-03T07:25:59;22.10;99.90
4701;DHT22;8724;51.272;6.554;2022-07-03T07:28:29;22.10;99.90
4701;DHT22;8724;51.272;6.554;2022-07-03T07:30:57;22.10;99.90
4701;DHT22;8724;51.272;6.554;2022-07-03T07:33:25;22.10;99.90
4701;DHT22;8724;51.272;6.554;2022-07-03T07:35:53;22.20;99.90
4701;DHT22;8724;51.272;6.554;2022-07-03T07:38:22;22.20;99.90
4701;DHT22;8724;51.272;6.554;2022-07-03T07:40:50;22.20;99.90
4701;DHT22;8724;51.272;6.554;2022-07-03T07:43:19;22.20;99.90
4701;DHT22;8724;51.272;6.554;2022-07-03T07:45:49;22.20;99.90
4701;DHT22;8724;51.272;6.554;2022-07-03T07:48:18;22.20;99.90
4701;DHT22;8724;51.272;6.554;2022-07-03T07:50:46;22.20;99.90
4701;DHT22;8724;51.272;6.554;2022-07-03T07:53:16;22.20;99.90
4701;DHT22;8724;51.272;6.554;2022-07-03T07:55:44;22.20;99.90
4701;DHT22;8724;51.272;6.554;2022-07-03T07:58:13;22.20;99.90
4701;DHT22;8724;51.272;6.554;2022-07-03T08:00:41;22.30;99.90
4701;DHT22;8724;51.272;6.554;2022-07-03T08:03:31;22.30;99.90
4701;DHT22;8724;51.272;6.554;2022-07-03T08:06:17;22.30;99.90
4701;DHT22;8724;51.272;6.554;2022-07-03T08:08:46;22.30;99.90
4701;DHT22;8724;51.272;6.554;2022-07-03T08:11:14;22.30;99.90
4701;DHT22;8724;51.272;6.554;2022-07-03T08:13:43;22.30;99.90
4701;DHT22;8724;51.272;6.554;2022-07-03T08:16:13;22.30;99.90
4701;DHT22;8724;51.272;6.554;2022-07-03T08:18:42;22.30;99.90
4701;DHT22;8724;51.272;6.554;2022-07-03T08:21:11;22.40;99.90
4701;DHT22;8724;51.272;6.554;2022-07-03T08:23:39;22.40;99.90
4701;DHT22;8724;51.272;6.554;2022-07-03T08:26:07;22.40;99.90
4701;DHT22;8724;51.272;6.554;2022-07-03T08:28:36;22.30;99.90
4701;DHT22;8724;51.272;6.554;2022-07-03T08:31:04;22.40;99.90
4701;DHT22;8724;51.272;6.554;2022-07-03T08:33:33;22.40;99.90
4701;DHT22;8724;51.272;6.554;2022-07-03T08:36:06;22.40;99.90
4701;DHT22;8724;51.272;6.554;2022-07-03T08:38:35;22.40;99.90
4701;DHT22;8724;51.272;6.554;2022-07-03T08:41:04;22.40;99.90
4701;DHT22;8724;51.272;6.554;2022-07-03T08:43:33;22.40;99.90
4701;DHT22;8724;51.272;6.554;2022-07-03T08:46:02;22.50;99.90
4701;DHT22;8724;51.272;6.554;2022-07-03T08:48:32;22.40;99.90
4701;DHT22;8724;51.272;6.554;2022-07-03T08:51:02;22.50;99.90
4701;DHT22;8724;51.272;6.554;2022-07-03T08:53:32;22.50;99.90
4701;DHT22;8724;51.272;6.554;2022-07-03T08:56:01;22.40;99.90
4701;DHT22;8724;51.272;6.554;2022-07-03T08:58:30;22.40;99.90
4701;DHT22;8724;51.272;6.554;2022-07-03T09:00:59;22.50;99.90
4701;DHT22;8724;51.272;6.554;2022-07-03T09:03:29;22.50;99.90
4701;DHT22;8724;51.272;6.554;2022-07-03T09:05:59;22.50;99.90
4701;DHT22;8724;51.272;6.554;2022-07-03T09:08:29;22.50;99.90
4701;DHT22;8724;51.272;6.554;2022-07-03T09:11:00;22.50;99.90
4701;DHT22;8724;51.272;6.554;2022-07-03T09:13:29;22.50;99.90
4701;DHT22;8724;51.272;6.554;2022-07-03T09:15:58;22.50;99.90
4701;DHT22;8724;51.272;6.554;2022-07-03T09:18:40;22.50;99.90
4701;DHT22;8724;51.272;6.554;2022-07-03T09:21:08;22.50;99.90
4701;DHT22;8724;51.272;6.554;2022-07-03T09:23:38;22.60;99.90
4701;DHT22;8724;51.272;6.554;2022-07-03T09:26:12;22.60;99.90
4701;DHT22;8724;51.272;6.554;2022-07-03T09:28:46;22.60;99.90
4701;DHT22;8724;51.272;6.554;2022-07-03T09:31:16;22.60;99.90
4701;DHT22;8724;51.272;6.554;2022-07-03T09:33:53;22.60;99.90
4701;DHT22;8724;51.272;6.554;2022-07-03T09:36:23;22.60;99.90
4701;DHT22;8724;51.272;6.554;2022-07-03T09:39:13;22.60;99.90
4701;DHT22;8724;51.272;6.554;2022-07-03T09:41:56;22.70;99.90
4701;DHT22;8724;51.272;6.554;2022-07-03T09:44:32;22.60;99.90
4701;DHT22;8724;51.272;6.554;2022-07-03T09:47:12;22.60;99.90
4701;DHT22;8724;51.272;6.554;2022-07-03T09:49:49;22.70;99.90
4701;DHT22;8724;51.272;6.554;2022-07-03T09:52:29;22.60;99.90
4701;DHT22;8724;51.272;6.554;2022-07-03T09:55:00;22.60;99.90
4701;DHT22;8724;51.272;6.554;2022-07-03T09:57:30;22.70;99.90
4701;DHT22;8724;51.272;6.554;2022-07-03T10:00:12;22.70;99.90
4701;DHT22;8724;51.272;6.554;2022-07-03T10:02:55;22.70;99.90
4701;DHT22;8724;51.272;6.554;2022-07-03T10:05:26;22.70;99.90
4701;DHT22;8724;51.272;6.554;2022-07-03T10:07:58;22.70;99.90
4701;DHT22;8724;51.272;6.554;2022-07-03T10:10:27;22.70;99.90
4701;DHT22;8724;51.272;6.554;2022-07-03T10:12:58;22.70;99.90
4701;DHT22;8724;51.272;6.554;2022-07-03T10:15:28;22.70;99.90
4701;DHT22;8724;51.272;6.554;2022-07-03T10:17:58;22.80;99.90
4701;DHT22;8724;51.272;6.554;2022-07-03T10:20:28;22.80;99.90
4701;DHT22;8724;51.272;6.554;2022-07-03T10:22:57;22.70;99.90
4701;DHT22;8724;51.272;6.554;2022-07-03T10:25:26;22.80;99.90
4701;DHT22;8724;51.272;6.554;2022-07-03T10:27:54;22.80;99.90
4701;DHT22;8724;51.272;6.554;2022-07-03T10:30:25;22.80;99.90
4701;DHT22;8724;51.272;6.554;2022-07-03T10:32:55;22.80;99.90
4701;DHT22;8724;51.272;6.554;2022-07-03T10:35:26;22.80;99.90
4701;DHT22;8724;51.272;6.554;2022-07-03T10:38:05;22.80;99.90
4701;DHT22;8724;51.272;6.554;2022-07-03T10:40:42;22.80;99.90
4701;DHT22;8724;51.272;6.554;2022-07-03T10:43:31;22.80;99.90
4701;DHT22;8724;51.272;6.554;2022-07-03T10:46:22;22.80;99.90
4701;DHT22;8724;51.272;6.554;2022-07-03T10:48:52;22.80;99.90
4701;DHT22;8724;51.272;6.554;2022-07-03T10:51:24;22.80;99.90
4701;DHT22;8724;51.272;6.554;2022-07-03T10:54:14;22.90;99.90
4701;DHT22;8724;51.272;6.554;2022-07-03T10:57:05;22.90;99.90
4701;DHT22;8724;51.272;6.554;2022-07-03T10:59:56;22.90;99.90
4701;DHT22;8724;51.272;6.554;2022-07-03T11:02:27;22.90;99.90
4701;DHT22;8724;51.272;6.554;2022-07-03T11:05:08;23.00;99.90
4701;DHT22;8724;51.272;6.554;2022-07-03T11:07:43;23.00;99.90
4701;DHT22;8724;51.272;6.554;2022-07-03T11:10:30;23.00;99.90
4701;DHT22;8724;51.272;6.554;2022-07-03T11:12:59;23.00;99.90
4701;DHT22;8724;51.272;6.554;2022-07-03T11:15:30;23.00;99.90
4701;DHT22;8724;51.272;6.554;2022-07-03T11:18:15;23.10;99.90
4701;DHT22;8724;51.272;6.554;2022-07-03T11:21:12;23.10;99.90
4701;DHT22;8724;51.272;6.554;2022-07-03T11:26:41;23.10;99.90
4701;DHT22;8724;51.272;6.554;2022-07-03T11:29:25;23.20;99.90
4701;DHT22;8724;51.272;6.554;2022-07-03T11:31:55;23.20;99.90
4701;DHT22;8724;51.272;6.554;2022-07-03T11:34:25;23.20;99.90
4701;DHT22;8724;51.272;6.554;2022-07-03T11:36:53;23.20;99.90
4701;DHT22;8724;51.272;6.554;2022-07-03T11:39:22;23.20;99.90
4701;DHT22;8724;51.272;6.554;2022-07-03T11:41:50;23.30;99.90
4701;DHT22;8724;51.272;6.554;2022-07-03T11:44:20;23.30;99.90
4701;DHT22;8724;51.272;6.554;2022-07-03T11:46:51;23.20;99.90
4701;DHT22;8724;51.272;6.554;2022-07-03T11:49:22;23.20;99.90
4701;DHT22;8724;51.272;6.554;2022-07-03T11:52:01;23.20;99.90
4701;DHT22;8724;51.272;6.554;2022-07-03T11:54:31;23.30;99.90
4701;DHT22;8724;51.272;6.554;2022-07-03T11:57:00;23.30;99.90
4701;DHT22;8724;51.272;6.554;2022-07-03T11:59:28;23.30;99.90
4701;DHT22;8724;51.272;6.554;2022-07-03T12:02:01;23.30;99.90
4701;DHT22;8724;51.272;6.554;2022-07-03T12:04:31;23.30;99.90
4701;DHT22;8724;51.272;6.554;2022-07-03T12:07:00;23.30;99.90
4701;DHT22;8724;51.272;6.554;2022-07-03T12:09:30;23.30;99.90
4701;DHT22;8724;51.272;6.554;2022-07-03T12:12:02;23.30;99.90
4701;DHT22;8724;51.272;6.554;2022-07-03T12:14:39;23.40;99.90
4701;DHT22;8724;51.272;6.554;2022-07-03T12:17:10;23.40;99.90
4701;DHT22;8724;51.272;6.554;2022-07-03T12:19:44;23.40;99.90
4701;DHT22;8724;51.272;6.554;2022-07-03T12:22:22;23.50;99.90
4701;DHT22;8724;51.272;6.554;2022-07-03T12:25:01;23.50;99.90
4701;DHT22;8724;51.272;6.554;2022-07-03T12:27:30;23.50;99.90
4701;DHT22;8724;51.272;6.554;2022-07-03T12:29:58;23.50;99.90
4701;DHT22;8724;51.272;6.554;2022-07-03T12:32:28;23.50;99.90
4701;DHT22;8724;51.272;6.554;2022-07-03T12:34:56;23.50;99.90
4701;DHT22;8724;51.272;6.554;2022-07-03T12:37:33;23.60;99.90
4701;DHT22;8724;51.272;6.554;2022-07-03T12:40:03;23.70;99.90
4701;DHT22;8724;51.272;6.554;2022-07-03T12:42:42;23.70;99.90
4701;DHT22;8724;51.272;6.554;2022-07-03T12:45:12;23.70;99.90
4701;DHT22;8724;51.272;6.554;2022-07-03T12:47:43;23.70;99.90
4701;DHT22;8724;51.272;6.554;2022-07-03T12:50:12;23.80;99.90
4701;DHT22;8724;51.272;6.554;2022-07-03T12:52:54;23.80;99.90
4701;DHT22;8724;51.272;6.554;2022-07-03T12:55:27;23.80;99.90
4701;DHT22;8724;51.272;6.554;2022-07-03T12:58:12;23.80;99.90
4701;DHT22;8724;51.272;6.554;2022-07-03T13:00:58;23.90;99.90
4701;DHT22;8724;51.272;6.554;2022-07-03T13:03:27;23.90;99.90
4701;DHT22;8724;51.272;6.554;2022-07-03T13:06:16;23.90;99.90
4701;DHT22;8724;51.272;6.554;2022-07-03T13:08:57;23.90;99.90
4701;DHT22;8724;51.272;6.554;2022-07-03T13:11:26;23.90;99.90
4701;DHT22;8724;51.272;6.554;2022-07-03T13:14:09;24.00;99.90
4701;DHT22;8724;51.272;6.554;2022-07-03T13:16:41;24.00;99.90
4701;DHT22;8724;51.272;6.554;2022-07-03T13:19:11;24.00;99.90
4701;DHT22;8724;51.272;6.554;2022-07-03T13:21:40;24.10;99.90
4701;DHT22;8724;51.272;6.554;2022-07-03T13:24:12;24.10;99.90
4701;DHT22;8724;51.272;6.554;2022-07-03T13:26:41;24.10;99.90
4701;DHT22;8724;51.272;6.554;2022-07-03T13:29:15;24.10;99.90
4701;DHT22;8724;51.272;6.554;2022-07-03T13:31:44;24.10;99.90
4701;DHT22;8724;51.272;6.554;2022-07-03T13:34:13;24.10;99.90
4701;DHT22;8724;51.272;6.554;2022-07-03T13:36:42;24.10;99.90
4701;DHT22;8724;51.272;6.554;2022-07-03T13:39:12;24.10;99.90
4701;DHT22;8724;51.272;6.554;2022-07-03T13:41:40;24.10;99.90
4701;DHT22;8724;51.272;6.554;2022-07-03T13:44:08;24.10;99.90
4701;DHT22;8724;51.272;6.554;2022-07-03T13:46:36;24.10;99.90
4701;DHT22;8724;51.272;6.554;2022-07-03T13:49:05;24.20;99.90
4701;DHT22;8724;51.272;6.554;2022-07-03T13:51:33;24.10;99.90
4701;DHT22;8724;51.272;6.554;2022-07-03T13:54:02;24.10;99.90
4701;DHT22;8724;51.272;6.554;2022-07-03T13:56:32;24.10;99.90
4701;DHT22;8724;51.272;6.554;2022-07-03T13:59:00;24.10;99.90
4701;DHT22;8724;51.272;6.554;2022-07-03T14:01:28;24.10;99.90
4701;DHT22;8724;51.272;6.554;2022-07-03T14:03:57;24.10;99.90
4701;DHT22;8724;51.272;6.554;2022-07-03T14:06:26;24.10;99.90
4701;DHT22;8724;51.272;6.554;2022-07-03T14:08:54;24.10;99.90
4701;DHT22;8724;51.272;6.554;2022-07-03T14:11:24;24.00;99.90
4701;DHT22;8724;51.272;6.554;2022-07-03T14:13:54;24.00;99.90
4701;DHT22;8724;51.272;6.554;2022-07-03T14:16:23;24.00;99.90
4701;DHT22;8724;51.272;6.554;2022-07-03T14:18:51;24.00;99.90
4701;DHT22;8724;51.272;6.554;2022-07-03T14:21:20;24.00;99.90
4701;DHT22;8724;51.272;6.554;2022-07-03T14:23:48;24.00;99.90
4701;DHT22;8724;51.272;6.554;2022-07-03T14:26:16;24.00;99.90
4701;DHT22;8724;51.272;6.554;2022-07-03T14:29:06;23.90;99.90
4701;DHT22;8724;51.272;6.554;2022-07-03T14:31:52;23.90;99.90
4701;DHT22;8724;51.272;6.554;2022-07-03T14:34:39;23.90;99.90
4701;DHT22;8724;51.272;6.554;2022-07-03T14:37:08;23.90;99.90
4701;DHT22;8724;51.272;6.554;2022-07-03T14:39:36;24.00;99.90
4701;DHT22;8724;51.272;6.554;2022-07-03T14:42:05;24.10;99.90
4701;DHT22;8724;51.272;6.554;2022-07-03T14:44:35;24.10;99.90
4701;DHT22;8724;51.272;6.554;2022-07-03T14:47:04;24.10;99.90
4701;DHT22;8724;51.272;6.554;2022-07-03T14:49:32;24.10;99.90
4701;DHT22;8724;51.272;6.554;2022-07-03T14:52:02;24.00;99.90
4701;DHT22;8724;51.272;6.554;2022-07-03T14:54:31;24.00;99.90
4701;DHT22;8724;51.272;6.554;2022-07-03T14:57:02;24.00;99.90
4701;DHT22;8724;51.272;6.554;2022-07-03T14:59:41;24.00;99.90
4701;DHT22;8724;51.272;6.554;2022-07-03T15:02:18;24.00;99.90
4701;DHT22;8724;51.272;6.554;2022-07-03T15:05:00;24.10;99.90
4701;DHT22;8724;51.272;6.554;2022-07-03T15:07:36;24.10;99.90
4701;DHT22;8724;51.272;6.554;2022-07-03T15:10:08;24.10;99.90
4701;DHT22;8724;51.272;6.554;2022-07-03T15:12:41;24.20;99.90
4701;DHT22;8724;51.272;6.554;2022-07-03T15:15:13;24.20;99.90
4701;DHT22;8724;51.272;6.554;2022-07-03T15:17:42;24.30;99.90
4701;DHT22;8724;51.272;6.554;2022-07-03T15:20:13;24.40;99.90
4701;DHT22;8724;51.272;6.554;2022-07-03T15:22:43;24.40;99.90
4701;DHT22;8724;51.272;6.554;2022-07-03T15:25:13;24.60;99.90
4701;DHT22;8724;51.272;6.554;2022-07-03T15:27:42;24.90;99.90
4701;DHT22;8724;51.272;6.554;2022-07-03T15:30:12;25.10;99.90
4701;DHT22;8724;51.272;6.554;2022-07-03T15:32:45;25.40;99.90
4701;DHT22;8724;51.272;6.554;2022-07-03T15:35:14;25.70;99.90
4701;DHT22;8724;51.272;6.554;2022-07-03T15:40:47;26.50;99.90
4701;DHT22;8724;51.272;6.554;2022-07-03T15:43:30;27.10;99.90
4701;DHT22;8724;51.272;6.554;2022-07-03T15:46:11;27.50;99.90
4701;DHT22;8724;51.272;6.554;2022-07-03T15:48:51;27.80;99.90
4701;DHT22;8724;51.272;6.554;2022-07-03T15:51:22;28.10;99.90
4701;DHT22;8724;51.272;6.554;2022-07-03T15:54:01;28.40;99.90
4701;DHT22;8724;51.272;6.554;2022-07-03T15:56:32;28.70;99.80
4701;DHT22;8724;51.272;6.554;2022-07-03T15:59:04;28.90;99.20
4701;DHT22;8724;51.272;6.554;2022-07-03T16:01:39;29.00;98.70
4701;DHT22;8724;51.272;6.554;2022-07-03T16:04:28;29.20;98.00
4701;DHT22;8724;51.272;6.554;2022-07-03T16:06:59;29.30;97.30
4701;DHT22;8724;51.272;6.554;2022-07-03T16:09:29;29.30;97.20
4701;DHT22;8724;51.272;6.554;2022-07-03T16:11:59;29.30;96.80
4701;DHT22;8724;51.272;6.554;2022-07-03T16:14:29;29.10;96.20
4701;DHT22;8724;51.272;6.554;2022-07-03T16:17:02;28.80;96.30
4701;DHT22;8724;51.272;6.554;2022-07-03T16:19:32;28.70;96.20
4701;DHT22;8724;51.272;6.554;2022-07-03T16:22:01;28.60;95.60
4701;DHT22;8724;51.272;6.554;2022-07-03T16:24:35;28.40;95.40
4701;DHT22;8724;51.272;6.554;2022-07-03T16:27:04;28.20;94.30
4701;DHT22;8724;51.272;6.554;2022-07-03T16:29:33;28.00;94.00
4701;DHT22;8724;51.272;6.554;2022-07-03T16:32:06;27.90;93.30
4701;DHT22;8724;51.272;6.554;2022-07-03T16:34:46;27.80;93.40
4701;DHT22;8724;51.272;6.554;2022-07-03T16:37:22;27.60;93.60
4701;DHT22;8724;51.272;6.554;2022-07-03T16:39:59;27.50;94.00